Time;durP1;ratioP1;P1;durP2;ratioP2;P2;SDS_P1;SDS_P2;PMS_P1;PMS_P2;Temp;Humidity;BMP_temperature;BMP_pressure;BME280_temperature;BME280_humidity;BME280_pressure;Samples;Min_cycle;Max_cycle;Signal;HPM_P1;HPM_P2
2023/11/13 06:00:59;;;;;;;;;;;;;;;;;;5748538;23;20299;-46
2023/11/13 06:03:25;;;;;;;;;;;;;;;;;;4950869;29;19918;-48
2023/11/13 06:05:51;;;;;;;;;;;;;;;;;;4950925;29;19996;-44
2023/11/13 06:08:17;;;;;;;;;;;;;;;;;;4950922;29;20346;-45
2023/11/13 06:10:43;;;;;;;;;;;;;;;;;;4950890;29;19919;-44
2023/11/13 06:13:08;;;;;;;;;;;;;;;;;;4951101;29;19910;-45
2023/11/13 06:15:40;;;;;;;;;;;;;;;;;;4950810;28;20068;-47
2023/11/13 06:18:06;;;;;;;;;;;;;;;;;;4953767;29;19910;-45
2023/11/13 06:20:33;;;;;;;;;;;;;;;;;;4954818;29;19920;-44
2023/11/13 06:22:59;;;;;;;;;;;;;;;;;;4954727;29;19910;-47
2023/11/13 06:25:25;;;;;;;;;;;;;;;;;;4953447;29;19917;-45
2023/11/13 06:27:52;;;;;;;;;;;;;;;;;;4954594;29;20398;-44
2023/11/13 06:30:18;;;;;;;;;;;;;;;;;;4954656;29;19914;-44
2023/11/13 06:32:47;;;;;;;;;;;;;;;;;;4954980;29;19921;-43
2023/11/13 06:35:13;;;;;;;;;;;;;;;;;;4954609;29;19918;-44
2023/11/13 06:37:40;;;;;;;;;;;;;;;;;;4954464;29;19915;-44
2023/11/13 06:40:06;;;;;;;;;;;;;;;;;;4954499;29;19949;-44
2023/11/13 06:42:32;;;;;;;;;;;;;;;;;;4952722;28;19980;-46
2023/11/13 06:44:58;;;;;;;;;;;;;;;;;;4968834;28;19969;-45
2023/11/13 06:47:24;;;;;;;;;;;;;;;;;;4955159;28;19953;-44
2023/11/13 06:49:50;;;;;;;;;;;;;;;;;;4954868;29;19957;-46
2023/11/13 06:52:16;;;;;;;;;;;;;;;;;;4955329;29;19911;-45
2023/11/13 06:54:43;;;;;;;;;;;;;;;;;;4955373;29;19917;-45
2023/11/13 06:57:10;;;;;;;;;;;;;;;;;;4955170;28;19911;-44
2023/11/13 06:59:36;;;;;;;;;;;;;;;;;;4954860;28;20387;-44
2023/11/13 07:02:02;;;;;;;;;;;;;;;;;;4956248;28;19918;-44
2023/11/13 07:04:28;;;;;;;;;;;;;;;;;;4955059;29;19946;-45
2023/11/13 07:06:54;;;;;;;;;;;;;;;;;;4955351;29;19914;-43
2023/11/13 07:09:20;;;;;;;;;;;;;;;;;;4957400;28;19922;-44
2023/11/13 07:11:48;;;;;;;;;;;;;;;;;;4963194;28;19910;-44
2023/11/13 07:14:14;;;;;;;;;;;;;;;;;;4972891;28;19961;-44
2023/11/13 07:16:40;;;;;;;;;;;;;;;;;;4959152;28;19996;-45
2023/11/13 07:19:06;;;;;;;;;;;;;;;;;;4954842;28;20001;-44
2023/11/13 07:21:32;;;;;;;;;;;;;;;;;;4954788;29;19942;-44
2023/11/13 07:23:58;;;;;;;;;;;;;;;;;;4954617;29;19957;-46
2023/11/13 07:26:24;;;;;;;;;;;;;;;;;;4954401;29;19918;-44
2023/11/13 07:28:50;;;;;;;;;;;;;;;;;;4968875;28;20335;-44
2023/11/13 07:31:17;;;;;;;;;;;;;;;;;;4973668;28;19918;-46
2023/11/13 07:33:42;;;;;;;;;;;;;;;;;;4974340;28;19910;-44
2023/11/13 07:36:08;;;;;;;;;;;;;;;;;;4973501;28;19910;-44
2023/11/13 07:38:34;;;;;;;;;;;;;;;;;;4960836;28;19919;-44
2023/11/13 07:41:00;;;;;;;;;;;;;;;;;;4954540;29;19915;-44
2023/11/13 07:43:28;;;;;;;;;;;;;;;;;;4951232;28;20005;-44
2023/11/13 07:45:54;;;;;;;;;;;;;;;;;;4968069;28;19982;-43
2023/11/13 07:48:20;;;;;;;;;;;;;;;;;;4953642;28;20359;-46
2023/11/13 07:50:46;;;;;;;;;;;;;;;;;;4953401;29;19918;-44
2023/11/13 07:53:12;;;;;;;;;;;;;;;;;;4954239;28;20362;-45
2023/11/13 07:55:43;;;;;;;;;;;;;;;;;;4969214;28;19918;-45
2023/11/13 07:58:10;;;;;;;;;;;;;;;;;;4950889;29;19914;-45
2023/11/13 08:03:12;;;;;;;;;;;;;;;;;;5291081;23;19993;-48
2023/11/13 08:05:38;;;;;;;;;;;;;;;;;;4935056;29;20446;-47
2023/11/13 08:08:04;;;;;;;;;;;;;;;;;;4934698;29;19915;-47
2023/11/13 08:10:32;;;;;;;;;;;;;;;;;;4934256;29;19918;-48
2023/11/13 08:13:00;;;;;;;;;;;;;;;;;;4935646;29;19911;-47
2023/11/13 08:15:26;;;;;;;;;;;;;;;;;;4934804;29;19910;-48
2023/11/13 08:17:52;;;;;;;;;;;;;;;;;;4933903;29;19937;-50
2023/11/13 08:20:18;;;;;;;;;;;;;;;;;;4935446;29;20005;-48
2023/11/13 08:22:47;;;;;;;;;;;;;;;;;;4935824;29;19911;-47
2023/11/13 08:25:15;;;;;;;;;;;;;;;;;;4933743;29;20022;-50
2023/11/13 08:27:40;;;;;;;;;;;;;;;;;;4946682;29;19997;-48
2023/11/13 08:30:07;;;;;;;;;;;;;;;;;;4936808;29;20050;-49
2023/11/13 08:32:34;;;;;;;;;;;;;;;;;;4935117;29;19914;-48
2023/11/13 08:35:00;;;;;;;;;;;;;;;;;;4933752;29;20299;-47
2023/11/13 08:37:27;;;;;;;;;;;;;;;;;;4935128;29;19911;-47
2023/11/13 08:39:53;;;;;;;;;;;;;;;;;;4932768;29;20383;-47
2023/11/13 08:42:19;;;;;;;;;;;;;;;;;;4932366;29;19958;-51
2023/11/13 08:44:45;;;;;;;;;;;;;;;;;;4934715;29;19915;-48
2023/11/13 08:47:11;;;;;;;;;;;;;;;;;;4931538;29;19922;-47
2023/11/13 08:49:41;;;;;;;;;;;;;;;;;;4934184;29;20291;-47
2023/11/13 08:52:08;;;;;;;;;;;;;;;;;;4934680;29;19914;-49
2023/11/13 08:54:34;;;;;;;;;;;;;;;;;;4943203;29;19921;-50
2023/11/13 08:57:02;;;;;;;;;;;;;;;;;;4933572;29;19911;-46
2023/11/13 08:59:29;;;;;;;;;;;;;;;;;;4934549;29;19928;-48
2023/11/13 09:01:54;;;;;;;;;;;;;;;;;;4934345;29;20391;-49
2023/11/13 09:04:20;;;;;;;;;;;;;;;;;;4934205;29;19911;-50
2023/11/13 09:06:46;;;;;;;;;;;;;;;;;;4933954;29;19907;-49
2023/11/13 09:09:12;;;;;;;;;;;;;;;;;;4931525;29;19923;-48
2023/11/13 09:11:40;;;;;;;;;;;;;;;;;;4932532;29;19969;-50
2023/11/13 09:14:09;;;;;;;;;;;;;;;;;;4933088;29;19925;-50
2023/11/13 09:16:35;;;;;;;;;;;;;;;;;;4932278;29;19911;-50
2023/11/13 09:19:01;;;;;;;;;;;;;;;;;;4933082;29;19918;-52
2023/11/13 09:21:27;;;;;;;;;;;;;;;;;;4932096;29;19994;-48
2023/11/13 09:23:52;;;;;;;;;;;;;;;;;;4932017;29;20284;-51
2023/11/13 09:26:18;;;;;;;;;;;;;;;;;;4932972;29;19946;-51
2023/11/13 09:28:45;;;;;;;;;;;;;;;;;;4933400;29;19911;-52
2023/11/13 09:31:11;;;;;;;;;;;;;;;;;;4932883;29;19998;-50
2023/11/13 09:33:39;;;;;;;;;;;;;;;;;;4932476;29;20006;-52
2023/11/13 09:36:06;;;;;;;;;;;;;;;;;;4932585;29;19915;-52
2023/11/13 09:38:32;;;;;;;;;;;;;;;;;;4932725;29;19918;-51
2023/11/13 09:41:02;;;;;;;;;;;;;;;;;;4932748;29;19911;-50
2023/11/13 09:43:31;;;;;;;;;;;;;;;;;;4932730;29;20387;-52
2023/11/13 09:45:58;;;;;;;;;;;;;;;;;;4947361;29;20022;-52
2023/11/13 09:48:30;;;;;;;;;;;;;;;;;;4932614;29;19918;-52
2023/11/13 09:50:59;;;;;;;;;;;;;;;;;;4932250;29;19919;-48
2023/11/13 09:53:26;;;;;;;;;;;;;;;;;;4932749;29;19922;-48
2023/11/13 09:55:52;;;;;;;;;;;;;;;;;;4932713;29;20395;-51
2023/11/13 09:58:18;;;;;;;;;;;;;;;;;;4932678;29;20035;-50
2023/11/13 10:00:45;;;;;;;;;;;;;;;;;;4932598;29;19929;-52
2023/11/13 10:03:14;;;;;;;;;;;;;;;;;;4932413;29;19919;-51
2023/11/13 10:05:40;;;;;;;;;;;;;;;;;;4932729;29;19918;-51
2023/11/13 10:08:06;;;;;;;;;;;;;;;;;;4932497;29;20307;-49
2023/11/13 10:10:32;;;;;;;;;;;;;;;;;;4931370;29;20025;-47
2023/11/13 10:13:01;;;;;;;;;;;;;;;;;;4946605;29;19921;-48
2023/11/13 10:15:27;;;;;;;;;;;;;;;;;;4928736;29;19918;-50
2023/11/13 10:17:53;;;;;;;;;;;;;;;;;;4930460;29;19911;-48
2023/11/13 10:20:19;;;;;;;;;;;;;;;;;;4932354;29;19997;-48
2023/11/13 10:22:48;;;;;;;;;;;;;;;;;;4931848;29;19939;-49
2023/11/13 10:25:14;;;;;;;;;;;;;;;;;;4931784;29;19911;-47
2023/11/13 10:27:46;;;;;;;;;;;;;;;;;;4932538;29;19919;-48
2023/11/13 10:30:12;;;;;;;;;;;;;;;;;;4932217;29;19927;-47
2023/11/13 10:32:38;;;;;;;;;;;;;;;;;;4931477;29;20415;-49
2023/11/13 10:35:09;;;;;;;;;;;;;;;;;;4931896;29;19950;-49
2023/11/13 10:37:34;;;;;;;;;;;;;;;;;;4928316;29;19915;-49
2023/11/13 10:40:01;;;;;;;;;;;;;;;;;;4929514;29;20468;-46
2023/11/13 10:42:27;;;;;;;;;;;;;;;;;;4930799;29;20013;-51
2023/11/13 10:44:54;;;;;;;;;;;;;;;;;;4932952;29;19940;-47
2023/11/13 10:47:20;;;;;;;;;;;;;;;;;;4930838;29;19934;-48
2023/11/13 10:49:46;;;;;;;;;;;;;;;;;;4931640;29;19922;-50
2023/11/13 10:52:12;;;;;;;;;;;;;;;;;;4931530;29;20017;-50
2023/11/13 10:54:38;;;;;;;;;;;;;;;;;;4931050;29;19962;-46
2023/11/13 10:57:04;;;;;;;;;;;;;;;;;;4932839;29;19939;-51
2023/11/13 10:59:30;;;;;;;;;;;;;;;;;;4932423;29;19921;-47
2023/11/13 11:01:57;;;;;;;;;;;;;;;;;;4932472;29;20362;-49
2023/11/13 11:04:23;;;;;;;;;;;;;;;;;;4935276;29;19921;-47
2023/11/13 11:06:49;;;;;;;;;;;;;;;;;;4934136;29;20392;-50
2023/11/13 11:09:17;;;;;;;;;;;;;;;;;;4932526;29;19976;-48
2023/11/13 11:11:44;;;;;;;;;;;;;;;;;;4934454;29;19919;-48
2023/11/13 11:14:10;;;;;;;;;;;;;;;;;;4934112;29;20009;-49
2023/11/13 11:16:36;;;;;;;;;;;;;;;;;;4935864;29;20046;-47
2023/11/13 11:19:02;;;;;;;;;;;;;;;;;;4935779;29;19990;-48
2023/11/13 11:21:28;;;;;;;;;;;;;;;;;;4935373;29;19921;-51
2023/11/13 11:23:54;;;;;;;;;;;;;;;;;;4934727;29;19915;-50
2023/11/13 11:26:20;;;;;;;;;;;;;;;;;;4936294;29;19911;-50
2023/11/13 11:28:48;;;;;;;;;;;;;;;;;;4937898;29;20005;-48
2023/11/13 11:31:14;;;;;;;;;;;;;;;;;;4936592;29;20014;-48
2023/11/13 11:33:40;;;;;;;;;;;;;;;;;;4932783;29;20009;-47
2023/11/13 11:36:06;;;;;;;;;;;;;;;;;;4935867;29;19981;-52
2023/11/13 11:38:32;;;;;;;;;;;;;;;;;;4935344;29;19919;-49
2023/11/13 11:40:59;;;;;;;;;;;;;;;;;;4935520;29;20403;-51
2023/11/13 11:43:25;;;;;;;;;;;;;;;;;;4934326;29;19914;-47
2023/11/13 11:45:54;;;;;;;;;;;;;;;;;;4932889;29;19922;-49
2023/11/13 11:48:20;;;;;;;;;;;;;;;;;;4931785;29;19915;-51
2023/11/13 11:50:45;;;;;;;;;;;;;;;;;;4934168;29;19918;-49
2023/11/13 11:53:16;;;;;;;;;;;;;;;;;;4935258;29;20410;-48
2023/11/13 11:55:42;;;;;;;;;;;;;;;;;;4935825;29;19925;-52
2023/11/13 11:58:10;;;;;;;;;;;;;;;;;;4935059;29;19981;-49
2023/11/13 12:00:36;;;;;;;;;;;;;;;;;;4935189;29;19907;-50
2023/11/13 12:03:03;;;;;;;;;;;;;;;;;;4934376;29;20299;-51
2023/11/13 12:05:29;;;;;;;;;;;;;;;;;;4933865;29;19911;-48
2023/11/13 12:07:55;;;;;;;;;;;;;;;;;;4934862;29;19911;-48
2023/11/13 12:10:21;;;;;;;;;;;;;;;;;;4934761;29;19922;-48
2023/11/13 12:12:47;;;;;;;;;;;;;;;;;;4935062;29;20392;-51
2023/11/13 12:15:13;;;;;;;;;;;;;;;;;;4931042;29;19974;-49
2023/11/13 12:17:39;;;;;;;;;;;;;;;;;;4932431;29;19985;-52
2023/11/13 12:20:06;;;;;;;;;;;;;;;;;;4933120;29;19911;-51
2023/11/13 12:22:32;;;;;;;;;;;;;;;;;;4933636;29;19975;-48
2023/11/13 12:24:58;;;;;;;;;;;;;;;;;;4934068;29;19911;-50
2023/11/13 12:27:24;;;;;;;;;;;;;;;;;;4932463;29;19922;-48
2023/11/13 12:29:50;;;;;;;;;;;;;;;;;;4932935;29;20296;-51
2023/11/13 12:32:16;;;;;;;;;;;;;;;;;;4933833;29;19926;-49
2023/11/13 12:34:42;;;;;;;;;;;;;;;;;;4932985;29;19958;-50
2023/11/13 12:37:08;;;;;;;;;;;;;;;;;;4934005;29;19919;-49
2023/11/13 12:39:34;;;;;;;;;;;;;;;;;;4934205;29;19911;-50
2023/11/13 12:42:00;;;;;;;;;;;;;;;;;;4928600;29;19915;-48
2023/11/13 12:44:26;;;;;;;;;;;;;;;;;;4932870;29;20441;-49
2023/11/13 12:46:56;;;;;;;;;;;;;;;;;;4933530;29;19926;-50
2023/11/13 12:49:22;;;;;;;;;;;;;;;;;;4933087;29;19915;-48
2023/11/13 12:51:48;;;;;;;;;;;;;;;;;;4933062;29;20248;-53
2023/11/13 12:54:14;;;;;;;;;;;;;;;;;;4932780;29;20320;-48
2023/11/13 12:56:40;;;;;;;;;;;;;;;;;;4933962;29;19993;-52
2023/11/13 12:59:07;;;;;;;;;;;;;;;;;;4933094;29;19954;-50
2023/11/13 13:01:33;;;;;;;;;;;;;;;;;;4933550;29;20411;-45
2023/11/13 13:03:59;;;;;;;;;;;;;;;;;;4932273;29;19915;-44
2023/11/13 13:06:25;;;;;;;;;;;;;;;;;;4933774;29;20009;-45
2023/11/13 13:08:53;;;;;;;;;;;;;;;;;;4933906;29;19926;-45
2023/11/13 13:11:23;;;;;;;;;;;;;;;;;;4933790;29;19950;-45
2023/11/13 13:13:49;;;;;;;;;;;;;;;;;;4933673;29;20423;-46
2023/11/13 13:16:18;;;;;;;;;;;;;;;;;;4932349;29;20012;-44
2023/11/13 13:18:45;;;;;;;;;;;;;;;;;;4934540;29;19921;-44
2023/11/13 13:21:11;;;;;;;;;;;;;;;;;;4932919;29;20009;-44
2023/11/13 13:23:37;;;;;;;;;;;;;;;;;;4933528;29;20479;-46
2023/11/13 13:26:03;;;;;;;;;;;;;;;;;;4932165;29;20002;-43
2023/11/13 13:28:29;;;;;;;;;;;;;;;;;;4931082;29;19921;-44
2023/11/13 13:30:55;;;;;;;;;;;;;;;;;;4932354;29;20362;-44
2023/11/13 13:33:21;;;;;;;;;;;;;;;;;;4931666;29;19919;-44
2023/11/13 13:35:47;;;;;;;;;;;;;;;;;;4933811;29;20427;-45
2023/11/13 13:38:14;;;;;;;;;;;;;;;;;;4933479;29;19910;-44
2023/11/13 13:40:44;;;;;;;;;;;;;;;;;;4933212;29;19915;-46
2023/11/13 13:43:10;;;;;;;;;;;;;;;;;;4933042;29;19915;-44
2023/11/13 13:45:40;;;;;;;;;;;;;;;;;;4932978;29;20328;-44
2023/11/13 13:48:06;;;;;;;;;;;;;;;;;;4912660;29;20270;-43
2023/11/13 13:50:32;;;;;;;;;;;;;;;;;;4933070;29;19922;-46
2023/11/13 13:53:00;;;;;;;;;;;;;;;;;;4947294;29;19922;-44
2023/11/13 13:55:27;;;;;;;;;;;;;;;;;;4928242;29;20323;-44
2023/11/13 13:57:54;;;;;;;;;;;;;;;;;;4931117;29;19915;-43
2023/11/13 14:00:23;;;;;;;;;;;;;;;;;;4932408;29;20380;-44
2023/11/13 14:02:49;;;;;;;;;;;;;;;;;;4933545;29;19919;-45
2023/11/13 14:05:16;;;;;;;;;;;;;;;;;;4934584;29;19919;-43
2023/11/13 14:07:42;;;;;;;;;;;;;;;;;;4932039;29;19918;-45
2023/11/13 14:10:08;;;;;;;;;;;;;;;;;;4937640;29;19930;-44
2023/11/13 14:12:34;;;;;;;;;;;;;;;;;;4933735;29;19977;-44
2023/11/13 14:15:00;;;;;;;;;;;;;;;;;;4933811;29;20364;-45
2023/11/13 14:17:26;;;;;;;;;;;;;;;;;;4932163;29;19946;-45
2023/11/13 14:19:51;;;;;;;;;;;;;;;;;;4933447;29;19922;-44
2023/11/13 14:22:21;;;;;;;;;;;;;;;;;;4933444;29;19919;-47
2023/11/13 14:24:47;;;;;;;;;;;;;;;;;;4932167;29;19977;-44
2023/11/13 14:27:13;;;;;;;;;;;;;;;;;;4932970;29;19911;-44
2023/11/13 14:29:39;;;;;;;;;;;;;;;;;;4933279;29;19915;-44
2023/11/13 14:32:05;;;;;;;;;;;;;;;;;;4933466;29;20006;-43
2023/11/13 14:34:32;;;;;;;;;;;;;;;;;;4933775;29;19950;-44
2023/11/13 14:36:58;;;;;;;;;;;;;;;;;;4932816;29;20013;-45
2023/11/13 14:39:24;;;;;;;;;;;;;;;;;;4935152;29;19998;-45
2023/11/13 14:41:50;;;;;;;;;;;;;;;;;;4934662;29;20351;-44
2023/11/13 14:44:16;;;;;;;;;;;;;;;;;;4935989;29;19941;-46
2023/11/13 14:46:42;;;;;;;;;;;;;;;;;;4937018;29;19921;-46
2023/11/13 14:49:08;;;;;;;;;;;;;;;;;;4937155;29;19918;-45
2023/11/13 14:51:34;;;;;;;;;;;;;;;;;;4937342;29;20265;-48
2023/11/13 14:54:00;;;;;;;;;;;;;;;;;;4936215;29;19942;-45
2023/11/13 14:56:26;;;;;;;;;;;;;;;;;;4935934;29;20002;-44
2023/11/13 14:58:52;;;;;;;;;;;;;;;;;;4936494;29;19926;-43
2023/11/13 15:01:19;;;;;;;;;;;;;;;;;;4933914;29;19926;-43
2023/11/13 15:03:45;;;;;;;;;;;;;;;;;;4935193;29;19966;-44
2023/11/13 15:06:11;;;;;;;;;;;;;;;;;;4934659;29;19921;-46
2023/11/13 15:08:37;;;;;;;;;;;;;;;;;;4935903;29;19922;-44
2023/11/13 15:11:07;;;;;;;;;;;;;;;;;;4935696;29;19923;-46
2023/11/13 15:13:33;;;;;;;;;;;;;;;;;;4928579;29;20366;-46
2023/11/13 15:16:03;;;;;;;;;;;;;;;;;;4932995;29;20003;-43
2023/11/13 15:18:29;;;;;;;;;;;;;;;;;;4933102;29;20320;-44
2023/11/13 15:20:55;;;;;;;;;;;;;;;;;;4934907;29;19911;-45
2023/11/13 15:23:21;;;;;;;;;;;;;;;;;;4933933;29;19918;-43
2023/11/13 15:25:48;;;;;;;;;;;;;;;;;;4935001;29;19914;-45
2023/11/13 15:28:14;;;;;;;;;;;;;;;;;;4935090;29;19917;-46
2023/11/13 15:30:39;;;;;;;;;;;;;;;;;;4933620;29;20393;-44
2023/11/13 15:33:05;;;;;;;;;;;;;;;;;;4932985;29;19918;-45
2023/11/13 15:35:32;;;;;;;;;;;;;;;;;;4933538;29;20355;-46
2023/11/13 15:37:58;;;;;;;;;;;;;;;;;;4934506;29;19954;-45
2023/11/13 15:40:24;;;;;;;;;;;;;;;;;;4933529;29;20410;-44
2023/11/13 15:42:49;;;;;;;;;;;;;;;;;;4934438;29;20439;-47
2023/11/13 15:45:16;;;;;;;;;;;;;;;;;;4934540;29;19957;-45
2023/11/13 15:47:41;;;;;;;;;;;;;;;;;;4934434;29;19969;-44
2023/11/13 15:50:11;;;;;;;;;;;;;;;;;;4933988;29;19915;-44
2023/11/13 15:52:37;;;;;;;;;;;;;;;;;;4933672;29;19918;-44
2023/11/13 15:55:04;;;;;;;;;;;;;;;;;;4933417;29;20343;-43
2023/11/13 15:57:32;;;;;;;;;;;;;;;;;;4931847;29;19919;-44
2023/11/13 15:59:58;;;;;;;;;;;;;;;;;;4933158;29;19915;-43
2023/11/13 16:02:24;;;;;;;;;;;;;;;;;;4930340;29;19965;-44
2023/11/13 16:04:50;;;;;;;;;;;;;;;;;;4932764;29;19911;-43
2023/11/13 16:07:16;;;;;;;;;;;;;;;;;;4933508;29;19918;-43
2023/11/13 16:09:43;;;;;;;;;;;;;;;;;;4932460;29;19922;-43
2023/11/13 16:12:09;;;;;;;;;;;;;;;;;;4932134;29;20330;-44
2023/11/13 16:14:35;;;;;;;;;;;;;;;;;;4932466;29;19910;-45
2023/11/13 16:17:01;;;;;;;;;;;;;;;;;;4931370;29;20241;-43
2023/11/13 16:19:27;;;;;;;;;;;;;;;;;;4931576;29;19911;-42
2023/11/13 16:21:53;;;;;;;;;;;;;;;;;;4932019;29;19938;-44
2023/11/13 16:24:18;;;;;;;;;;;;;;;;;;4929909;29;19957;-43
2023/11/13 16:26:45;;;;;;;;;;;;;;;;;;4931841;29;19965;-43
2023/11/13 16:29:12;;;;;;;;;;;;;;;;;;4931524;29;20441;-43
2023/11/13 16:31:37;;;;;;;;;;;;;;;;;;4931151;29;19923;-43
2023/11/13 16:34:04;;;;;;;;;;;;;;;;;;4931356;29;20454;-43
2023/11/13 16:36:30;;;;;;;;;;;;;;;;;;4931332;29;19911;-42
2023/11/13 16:38:56;;;;;;;;;;;;;;;;;;4930170;29;19963;-45
2023/11/13 16:41:23;;;;;;;;;;;;;;;;;;4931809;29;20360;-45
2023/11/13 16:43:49;;;;;;;;;;;;;;;;;;4931890;29;19910;-44
2023/11/13 16:46:14;;;;;;;;;;;;;;;;;;4931512;29;19919;-45
2023/11/13 16:48:40;;;;;;;;;;;;;;;;;;4931618;29;19910;-44
2023/11/13 16:51:06;;;;;;;;;;;;;;;;;;4932456;29;20005;-44
2023/11/13 16:53:32;;;;;;;;;;;;;;;;;;4931804;29;19914;-43
2023/11/13 16:55:59;;;;;;;;;;;;;;;;;;4932451;29;20307;-44
2023/11/13 16:58:24;;;;;;;;;;;;;;;;;;4932041;29;19997;-43
2023/11/13 17:00:51;;;;;;;;;;;;;;;;;;4929615;29;20336;-44
2023/11/13 17:03:16;;;;;;;;;;;;;;;;;;4931983;29;19919;-43
2023/11/13 17:05:49;;;;;;;;;;;;;;;;;;4932865;29;20265;-45
2023/11/13 17:08:15;;;;;;;;;;;;;;;;;;4933108;29;19910;-45
2023/11/13 17:10:41;;;;;;;;;;;;;;;;;;4930612;29;20407;-43
2023/11/13 17:13:07;;;;;;;;;;;;;;;;;;4933492;29;20372;-46
2023/11/13 17:15:33;;;;;;;;;;;;;;;;;;4932158;29;19919;-44
2023/11/13 17:17:59;;;;;;;;;;;;;;;;;;4932560;29;19910;-44
2023/11/13 17:20:25;;;;;;;;;;;;;;;;;;4933500;29;19910;-44
2023/11/13 17:22:51;;;;;;;;;;;;;;;;;;4930861;29;19914;-46
2023/11/13 17:25:19;;;;;;;;;;;;;;;;;;4932061;29;19915;-44
2023/11/13 17:27:45;;;;;;;;;;;;;;;;;;4932619;29;19911;-44
2023/11/13 17:30:14;;;;;;;;;;;;;;;;;;4932510;29;19918;-44
2023/11/13 17:32:43;;;;;;;;;;;;;;;;;;4932578;29;19918;-44
2023/11/13 17:35:09;;;;;;;;;;;;;;;;;;4931624;29;20002;-44
2023/11/13 17:37:36;;;;;;;;;;;;;;;;;;4932671;29;19915;-46
2023/11/13 17:40:05;;;;;;;;;;;;;;;;;;4931096;29;20387;-45
2023/11/13 17:42:31;;;;;;;;;;;;;;;;;;4927932;29;19925;-44
2023/11/13 17:44:57;;;;;;;;;;;;;;;;;;4932019;29;19998;-45
2023/11/13 17:47:23;;;;;;;;;;;;;;;;;;4932328;29;19918;-46
2023/11/13 17:49:49;;;;;;;;;;;;;;;;;;4932022;29;19917;-44
2023/11/13 17:52:15;;;;;;;;;;;;;;;;;;4932128;29;19917;-45
2023/11/13 17:54:44;;;;;;;;;;;;;;;;;;4930646;29;20548;-45
2023/11/13 17:57:12;;;;;;;;;;;;;;;;;;4937261;29;19950;-45
2023/11/13 17:59:38;;;;;;;;;;;;;;;;;;4935128;29;20008;-46
2023/11/13 18:02:04;;;;;;;;;;;;;;;;;;4938646;29;20460;-46
2023/11/13 18:04:30;;;;;;;;;;;;;;;;;;4929964;29;19922;-45
2023/11/13 18:06:56;;;;;;;;;;;;;;;;;;4912899;29;19942;-45
2023/11/13 18:09:25;;;;;;;;;;;;;;;;;;4919599;29;19921;-44
2023/11/13 18:11:51;;;;;;;;;;;;;;;;;;4927579;28;20066;-45
2023/11/13 18:14:17;;;;;;;;;;;;;;;;;;4930703;29;19974;-45
2023/11/13 18:16:43;;;;;;;;;;;;;;;;;;4946141;29;19920;-46
2023/11/13 18:19:10;;;;;;;;;;;;;;;;;;4934257;29;19922;-45
2023/11/13 18:21:36;;;;;;;;;;;;;;;;;;4933255;29;19915;-45
2023/11/13 18:24:02;;;;;;;;;;;;;;;;;;4931548;29;19914;-44
2023/11/13 18:26:28;;;;;;;;;;;;;;;;;;4933228;29;20425;-46
2023/11/13 18:28:54;;;;;;;;;;;;;;;;;;4937260;29;19911;-45
2023/11/13 18:31:20;;;;;;;;;;;;;;;;;;4932630;29;20018;-45
2023/11/13 18:33:46;;;;;;;;;;;;;;;;;;4932835;29;20383;-45
2023/11/13 18:36:14;;;;;;;;;;;;;;;;;;4932398;29;19919;-45
2023/11/13 18:38:40;;;;;;;;;;;;;;;;;;4931422;29;19914;-45
2023/11/13 18:41:06;;;;;;;;;;;;;;;;;;4932494;29;19963;-45
2023/11/13 18:43:32;;;;;;;;;;;;;;;;;;4943307;29;19922;-46
2023/11/13 18:46:05;;;;;;;;;;;;;;;;;;4943938;29;19917;-44
2023/11/13 18:48:31;;;;;;;;;;;;;;;;;;4933609;29;19915;-45
2023/11/13 18:51:03;;;;;;;;;;;;;;;;;;4937022;29;19918;-46
2023/11/13 18:53:28;;;;;;;;;;;;;;;;;;4940382;29;19918;-45
2023/11/13 18:55:54;;;;;;;;;;;;;;;;;;4930315;29;19915;-45
2023/11/13 18:58:20;;;;;;;;;;;;;;;;;;4940768;29;19914;-45
2023/11/13 19:00:46;;;;;;;;;;;;;;;;;;4939187;29;20380;-46
2023/11/13 19:03:12;;;;;;;;;;;;;;;;;;4941386;29;19972;-45
2023/11/13 19:05:41;;;;;;;;;;;;;;;;;;4930927;29;19922;-45
2023/11/13 19:08:07;;;;;;;;;;;;;;;;;;4930108;29;19979;-45
2023/11/13 19:10:34;;;;;;;;;;;;;;;;;;4929725;29;20417;-45
2023/11/13 19:13:03;;;;;;;;;;;;;;;;;;4927746;29;20038;-46
2023/11/13 19:15:29;;;;;;;;;;;;;;;;;;4928043;29;19926;-46
2023/11/13 19:17:55;;;;;;;;;;;;;;;;;;4928058;29;19919;-46
2023/11/13 19:20:25;;;;;;;;;;;;;;;;;;4911563;29;19936;-45
2023/11/13 19:22:51;;;;;;;;;;;;;;;;;;4926055;29;19934;-46
2023/11/13 19:25:17;;;;;;;;;;;;;;;;;;4926646;29;19915;-47
2023/11/13 19:27:44;;;;;;;;;;;;;;;;;;4928900;29;19942;-47
2023/11/13 19:30:10;;;;;;;;;;;;;;;;;;4929301;29;20517;-46
2023/11/13 19:32:36;;;;;;;;;;;;;;;;;;4924647;29;19915;-45
2023/11/13 19:35:01;;;;;;;;;;;;;;;;;;4923478;29;19918;-45
2023/11/13 19:37:28;;;;;;;;;;;;;;;;;;4928134;29;19915;-47
2023/11/13 19:39:55;;;;;;;;;;;;;;;;;;4933272;29;20315;-46
2023/11/13 19:42:22;;;;;;;;;;;;;;;;;;4930271;29;19915;-46
2023/11/13 19:44:48;;;;;;;;;;;;;;;;;;4930105;29;19921;-47
2023/11/13 19:47:14;;;;;;;;;;;;;;;;;;4930605;29;20292;-47
2023/11/13 19:49:40;;;;;;;;;;;;;;;;;;4931789;29;19915;-48
2023/11/13 19:52:06;;;;;;;;;;;;;;;;;;4929441;29;19938;-46
2023/11/13 19:54:32;;;;;;;;;;;;;;;;;;4928021;29;20004;-45
2023/11/13 19:56:57;;;;;;;;;;;;;;;;;;4930150;29;20302;-45
2023/11/13 19:59:24;;;;;;;;;;;;;;;;;;4926120;29;19922;-46
2023/11/13 20:01:50;;;;;;;;;;;;;;;;;;4929866;29;19926;-47
2023/11/13 20:04:16;;;;;;;;;;;;;;;;;;4929292;29;20304;-47
2023/11/13 20:06:42;;;;;;;;;;;;;;;;;;4930678;29;19925;-46
2023/11/13 20:09:14;;;;;;;;;;;;;;;;;;4928821;29;20463;-49
2023/11/13 20:11:39;;;;;;;;;;;;;;;;;;4928884;29;20356;-46
2023/11/13 20:14:05;;;;;;;;;;;;;;;;;;4928263;29;20009;-47
2023/11/13 20:16:32;;;;;;;;;;;;;;;;;;4929125;29;19938;-45
2023/11/13 20:18:58;;;;;;;;;;;;;;;;;;4929317;29;19929;-46
2023/11/13 20:21:25;;;;;;;;;;;;;;;;;;4930911;29;19919;-45
2023/11/13 20:23:51;;;;;;;;;;;;;;;;;;4928341;29;19919;-47
2023/11/13 20:26:17;;;;;;;;;;;;;;;;;;4926744;29;20006;-45
2023/11/13 20:28:43;;;;;;;;;;;;;;;;;;4928198;29;20339;-45
2023/11/13 20:31:09;;;;;;;;;;;;;;;;;;4929148;29;19919;-45
2023/11/13 20:33:35;;;;;;;;;;;;;;;;;;4908788;29;19962;-46
2023/11/13 20:36:01;;;;;;;;;;;;;;;;;;4929572;29;19973;-46
2023/11/13 20:38:26;;;;;;;;;;;;;;;;;;4929752;29;20405;-45
2023/11/13 20:40:52;;;;;;;;;;;;;;;;;;4910571;29;19931;-45
2023/11/13 20:43:18;;;;;;;;;;;;;;;;;;4927255;29;19948;-46
2023/11/13 20:45:44;;;;;;;;;;;;;;;;;;4927909;29;19923;-44
2023/11/13 20:48:10;;;;;;;;;;;;;;;;;;4927534;29;20296;-46
2023/11/13 20:50:36;;;;;;;;;;;;;;;;;;4927477;29;19958;-46
2023/11/13 20:53:02;;;;;;;;;;;;;;;;;;4927279;29;20462;-45
2023/11/13 20:55:28;;;;;;;;;;;;;;;;;;4928571;29;19915;-45
2023/11/13 20:57:54;;;;;;;;;;;;;;;;;;4928780;29;19950;-46
2023/11/13 21:00:20;;;;;;;;;;;;;;;;;;4929847;29;19968;-45
2023/11/13 21:02:46;;;;;;;;;;;;;;;;;;4927734;29;20384;-47
2023/11/13 21:05:12;;;;;;;;;;;;;;;;;;4927681;29;19919;-51
2023/11/13 21:07:38;;;;;;;;;;;;;;;;;;4929297;29;19977;-48
2023/11/13 21:10:08;;;;;;;;;;;;;;;;;;4927339;29;19919;-51
2023/11/13 21:12:34;;;;;;;;;;;;;;;;;;4928493;29;19915;-49
2023/11/13 21:14:59;;;;;;;;;;;;;;;;;;4926089;29;19925;-49
2023/11/13 21:17:27;;;;;;;;;;;;;;;;;;4926112;29;19944;-50
2023/11/13 21:19:53;;;;;;;;;;;;;;;;;;4926618;29;19915;-50
2023/11/13 21:22:19;;;;;;;;;;;;;;;;;;4910567;29;20009;-51
2023/11/13 21:24:45;;;;;;;;;;;;;;;;;;4936702;29;20379;-50
2023/11/13 21:27:11;;;;;;;;;;;;;;;;;;4929743;29;20099;-50
2023/11/13 21:29:37;;;;;;;;;;;;;;;;;;4925789;29;19922;-48
2023/11/13 21:32:03;;;;;;;;;;;;;;;;;;4927767;29;19919;-47
2023/11/13 21:34:29;;;;;;;;;;;;;;;;;;4927202;29;19919;-48
2023/11/13 21:36:55;;;;;;;;;;;;;;;;;;4928411;29;19922;-49
2023/11/13 21:39:21;;;;;;;;;;;;;;;;;;4925914;29;19941;-48
2023/11/13 21:41:47;;;;;;;;;;;;;;;;;;4928364;29;19914;-46
2023/11/13 21:44:13;;;;;;;;;;;;;;;;;;4925644;29;20037;-51
2023/11/13 21:46:39;;;;;;;;;;;;;;;;;;4927584;29;19957;-51
2023/11/13 21:49:05;;;;;;;;;;;;;;;;;;4942646;28;19921;-48
2023/11/13 21:51:34;;;;;;;;;;;;;;;;;;4926331;29;19969;-47
2023/11/13 21:54:02;;;;;;;;;;;;;;;;;;4928030;29;19915;-50
2023/11/13 21:56:30;;;;;;;;;;;;;;;;;;4911686;29;20356;-48
2023/11/13 21:58:56;;;;;;;;;;;;;;;;;;4927533;29;19915;-47
2023/11/13 22:01:23;;;;;;;;;;;;;;;;;;4926581;29;19922;-49
2023/11/13 22:03:49;;;;;;;;;;;;;;;;;;4928236;29;20006;-49
2023/11/13 22:06:15;;;;;;;;;;;;;;;;;;4928589;29;20044;-48
2023/11/13 22:08:40;;;;;;;;;;;;;;;;;;4909427;29;19962;-50
2023/11/13 22:11:06;;;;;;;;;;;;;;;;;;4927422;29;20439;-48
2023/11/13 22:13:32;;;;;;;;;;;;;;;;;;4927675;29;19915;-49
2023/11/13 22:16:00;;;;;;;;;;;;;;;;;;4926907;29;20245;-52
2023/11/13 22:18:26;;;;;;;;;;;;;;;;;;4927156;29;19978;-47
2023/11/13 22:20:52;;;;;;;;;;;;;;;;;;4927166;29;19925;-47
2023/11/13 22:23:18;;;;;;;;;;;;;;;;;;4928332;29;19919;-48
2023/11/13 22:25:44;;;;;;;;;;;;;;;;;;4912113;29;20411;-48
2023/11/13 22:28:10;;;;;;;;;;;;;;;;;;4943385;29;19946;-48
2023/11/13 22:30:39;;;;;;;;;;;;;;;;;;4927067;29;20059;-49
2023/11/13 22:33:05;;;;;;;;;;;;;;;;;;4928708;29;19946;-49
2023/11/13 22:35:32;;;;;;;;;;;;;;;;;;4928235;29;20410;-48
2023/11/13 22:37:58;;;;;;;;;;;;;;;;;;4928065;29;20299;-47
2023/11/13 22:40:24;;;;;;;;;;;;;;;;;;4928956;29;19911;-47
2023/11/13 22:42:50;;;;;;;;;;;;;;;;;;4928857;29;19976;-47